Fecha, hora, temperatura, viento dirección y velocidad, humedad y presión.

  • 16-01-2019 17:00:00 | 9.40°C | Oeste |8.00 km/h | 62.00% | 938.10 hPa
  • 16-01-2019 16:00:00 | 9.60°C | Sudoeste |6.00 km/h | 60.00% | 938.10 hPa
  • 16-01-2019 15:00:00 | 9.60°C | Sudoeste |6.00 km/h | 59.00% | 938.30 hPa
  • 16-01-2019 14:00:00 | 7.50°C | Sudoeste |2.00 km/h | 64.00% | 939.00 hPa
  • 16-01-2019 13:00:00 | 6.40°C | Sur |3.00 km/h | 67.00% | 939.70 hPa
  • 16-01-2019 12:00:00 | 5.80°C | Sudeste |3.00 km/h | 68.00% | 940.40 hPa
  • 16-01-2019 11:00:00 | 4.10°C | Sudeste |3.00 km/h | 72.00% | 940.60 hPa
  • 16-01-2019 10:00:00 | 2.70°C | Este |4.00 km/h | 75.00% | 940.40 hPa
  • 16-01-2019 09:00:00 | 1.80°C | Este |3.00 km/h | 76.00% | 939.70 hPa
  • 16-01-2019 08:00:00 | 1.50°C | Nordeste |3.00 km/h | 78.00% | 939.80 hPa
  • 16-01-2019 07:00:00 | 1.80°C | Sudeste |3.00 km/h | 77.00% | 939.80 hPa
  • 16-01-2019 06:00:00 | 1.80°C | Calma |0.00 km/h | 77.00% | 940.00 hPa
  • 16-01-2019 05:00:00 | 2.40°C | Calma |0.00 km/h | 72.00% | 940.00 hPa
  • 16-01-2019 04:00:00 | 3.30°C | Este |3.00 km/h | 70.00% | 940.30 hPa
  • 16-01-2019 03:00:00 | 3.50°C | Calma |0.00 km/h | 68.00% | 940.40 hPa
  • 16-01-2019 02:00:00 | 4.10°C | Nordeste |3.00 km/h | 65.00% | 940.70 hPa
  • 16-01-2019 01:00:00 | 4.30°C | Este |2.00 km/h | 67.00% | 941.10 hPa
  • 16-01-2019 00:00:00 | 5.40°C | Sudeste |2.00 km/h | 65.00% | 941.20 hPa
  • 15-01-2019 23:00:00 | 6.10°C | Calma |0.00 km/h | 63.00% | 941.30 hPa
  • 15-01-2019 22:00:00 | 6.50°C | Calma |0.00 km/h | 61.00% | 941.20 hPa
  • 15-01-2019 21:00:00 | 7.30°C | Calma |0.00 km/h | 54.00% | 941.10 hPa
  • 15-01-2019 20:00:00 | 8.00°C | Calma |0.00 km/h | 53.00% | 940.90 hPa
  • 15-01-2019 19:00:00 | 9.30°C | Sudoeste |3.00 km/h | 50.00% | 940.70 hPa
  • 15-01-2019 18:00:00 | 10.70°C | Calma |0.00 km/h | 48.00% | 940.50 hPa
    • diseño web asturias Información sobre el estado de las mareas, altura de la marejada, temperatura del agua y otros datos de Gijón en Asturias.

      Surf Gijón